sensor_id;sensor_type;location;lat;lon;timestamp;temperature;humidity
4520;DHT22;2272;49.226;8.108;2023-05-29T11:55:32;27.30;68.20
4520;DHT22;2272;49.226;8.108;2023-05-29T11:58:01;27.10;68.50
4520;DHT22;2272;49.226;8.108;2023-05-29T12:00:34;27.10;67.90
4520;DHT22;2272;49.226;8.108;2023-05-29T12:03:05;27.20;68.30
4520;DHT22;2272;49.226;8.108;2023-05-29T12:05:44;27.00;68.50
4520;DHT22;2272;49.226;8.108;2023-05-29T12:08:11;26.90;66.40
4520;DHT22;2272;49.226;8.108;2023-05-29T12:10:47;26.80;67.00
4520;DHT22;2272;49.226;8.108;2023-05-29T12:13:15;26.70;67.90
4520;DHT22;2272;49.226;8.108;2023-05-29T12:15:44;26.50;68.10
4520;DHT22;2272;49.226;8.108;2023-05-29T12:18:11;26.50;68.00
4520;DHT22;2272;49.226;8.108;2023-05-29T12:20:59;26.70;68.90
4520;DHT22;2272;49.226;8.108;2023-05-29T12:23:32;27.00;67.80
4520;DHT22;2272;49.226;8.108;2023-05-29T12:26:01;27.20;66.30
4520;DHT22;2272;49.226;8.108;2023-05-29T12:28:28;27.40;66.50
4520;DHT22;2272;49.226;8.108;2023-05-29T12:31:03;27.70;66.90
4520;DHT22;2272;49.226;8.108;2023-05-29T12:33:34;28.00;66.20
4520;DHT22;2272;49.226;8.108;2023-05-29T12:36:05;28.10;63.70
4520;DHT22;2272;49.226;8.108;2023-05-29T12:38:41;27.90;63.20
4520;DHT22;2272;49.226;8.108;2023-05-29T12:41:28;28.00;63.00
4520;DHT22;2272;49.226;8.108;2023-05-29T12:44:01;28.00;63.80
4520;DHT22;2272;49.226;8.108;2023-05-29T12:46:35;28.00;63.70
4520;DHT22;2272;49.226;8.108;2023-05-29T12:49:11;28.10;64.20
4520;DHT22;2272;49.226;8.108;2023-05-29T12:51:40;28.10;63.10
4520;DHT22;2272;49.226;8.108;2023-05-29T12:54:10;28.10;64.10
4520;DHT22;2272;49.226;8.108;2023-05-29T12:56:44;27.90;63.20
4520;DHT22;2272;49.226;8.108;2023-05-29T12:59:13;27.90;62.40
4520;DHT22;2272;49.226;8.108;2023-05-29T13:01:40;27.70;64.60
4520;DHT22;2272;49.226;8.108;2023-05-29T13:04:08;27.60;64.90
4520;DHT22;2272;49.226;8.108;2023-05-29T13:06:38;27.50;64.00
4520;DHT22;2272;49.226;8.108;2023-05-29T13:09:05;27.50;63.40
4520;DHT22;2272;49.226;8.108;2023-05-29T13:11:33;27.50;63.20
4520;DHT22;2272;49.226;8.108;2023-05-29T13:14:03;27.60;62.10
4520;DHT22;2272;49.226;8.108;2023-05-29T13:16:30;27.40;62.50
4520;DHT22;2272;49.226;8.108;2023-05-29T13:18:57;27.50;63.50
4520;DHT22;2272;49.226;8.108;2023-05-29T13:21:33;27.90;63.60
4520;DHT22;2272;49.226;8.108;2023-05-29T13:24:01;28.00;63.20
4520;DHT22;2272;49.226;8.108;2023-05-29T13:26:34;28.10;63.10
4520;DHT22;2272;49.226;8.108;2023-05-29T13:29:05;28.40;62.50
4520;DHT22;2272;49.226;8.108;2023-05-29T13:31:35;28.50;60.00
4520;DHT22;2272;49.226;8.108;2023-05-29T13:34:02;28.20;59.80
4520;DHT22;2272;49.226;8.108;2023-05-29T13:36:29;28.10;61.80
4520;DHT22;2272;49.226;8.108;2023-05-29T13:38:56;28.30;62.00
4520;DHT22;2272;49.226;8.108;2023-05-29T13:41:23;28.60;60.00
4520;DHT22;2272;49.226;8.108;2023-05-29T13:43:50;28.60;58.80
4520;DHT22;2272;49.226;8.108;2023-05-29T13:46:24;28.30;58.10
4520;DHT22;2272;49.226;8.108;2023-05-29T13:48:54;28.00;58.80
4520;DHT22;2272;49.226;8.108;2023-05-29T13:51:34;28.00;58.40
4520;DHT22;2272;49.226;8.108;2023-05-29T13:54:07;28.20;58.90
4520;DHT22;2272;49.226;8.108;2023-05-29T13:56:34;28.40;58.40
4520;DHT22;2272;49.226;8.108;2023-05-29T13:59:01;28.50;57.90
4520;DHT22;2272;49.226;8.108;2023-05-29T14:01:32;28.40;57.90
4520;DHT22;2272;49.226;8.108;2023-05-29T14:04:02;28.70;58.10
4520;DHT22;2272;49.226;8.108;2023-05-29T14:06:32;28.90;58.20
4520;DHT22;2272;49.226;8.108;2023-05-29T14:08:59;28.90;57.60
4520;DHT22;2272;49.226;8.108;2023-05-29T14:11:31;28.80;56.60
4520;DHT22;2272;49.226;8.108;2023-05-29T14:14:01;28.70;56.80
4520;DHT22;2272;49.226;8.108;2023-05-29T14:16:28;28.60;57.30
4520;DHT22;2272;49.226;8.108;2023-05-29T14:19:26;28.50;56.80
4520;DHT22;2272;49.226;8.108;2023-05-29T14:22:11;28.50;58.00
4520;DHT22;2272;49.226;8.108;2023-05-29T14:24:41;28.70;57.70
4520;DHT22;2272;49.226;8.108;2023-05-29T14:27:11;28.80;56.70
4520;DHT22;2272;49.226;8.108;2023-05-29T14:29:38;28.60;56.50
4520;DHT22;2272;49.226;8.108;2023-05-29T14:32:05;28.60;57.30
4520;DHT22;2272;49.226;8.108;2023-05-29T14:34:34;28.50;57.30
4520;DHT22;2272;49.226;8.108;2023-05-29T14:37:00;28.30;57.50
4520;DHT22;2272;49.226;8.108;2023-05-29T14:39:27;28.30;57.60
4520;DHT22;2272;49.226;8.108;2023-05-29T14:41:54;28.20;58.00
4520;DHT22;2272;49.226;8.108;2023-05-29T14:44:20;28.20;57.00
4520;DHT22;2272;49.226;8.108;2023-05-29T14:46:47;28.20;57.50
4520;DHT22;2272;49.226;8.108;2023-05-29T14:49:16;28.30;58.20
4520;DHT22;2272;49.226;8.108;2023-05-29T14:51:47;28.50;57.50
4520;DHT22;2272;49.226;8.108;2023-05-29T14:54:14;28.90;57.00
4520;DHT22;2272;49.226;8.108;2023-05-29T14:56:41;29.20;56.20
4520;DHT22;2272;49.226;8.108;2023-05-29T14:59:07;29.00;55.10
4520;DHT22;2272;49.226;8.108;2023-05-29T15:01:37;28.70;55.60
4520;DHT22;2272;49.226;8.108;2023-05-29T15:04:04;28.40;55.20
4520;DHT22;2272;49.226;8.108;2023-05-29T15:06:34;28.10;56.20
4520;DHT22;2272;49.226;8.108;2023-05-29T15:09:02;28.00;56.90
4520;DHT22;2272;49.226;8.108;2023-05-29T15:11:30;27.80;56.50
4520;DHT22;2272;49.226;8.108;2023-05-29T15:13:57;27.70;58.50
4520;DHT22;2272;49.226;8.108;2023-05-29T15:16:24;27.80;58.90
4520;DHT22;2272;49.226;8.108;2023-05-29T15:18:51;28.00;58.10
4520;DHT22;2272;49.226;8.108;2023-05-29T15:21:22;28.00;57.30
4520;DHT22;2272;49.226;8.108;2023-05-29T15:23:49;27.90;57.30
4520;DHT22;2272;49.226;8.108;2023-05-29T15:26:17;27.90;57.50
4520;DHT22;2272;49.226;8.108;2023-05-29T15:28:44;27.80;57.60
4520;DHT22;2272;49.226;8.108;2023-05-29T15:31:11;27.80;57.20
4520;DHT22;2272;49.226;8.108;2023-05-29T15:33:37;27.80;57.20
4520;DHT22;2272;49.226;8.108;2023-05-29T15:36:05;27.90;57.50
4520;DHT22;2272;49.226;8.108;2023-05-29T15:38:33;28.10;58.40
4520;DHT22;2272;49.226;8.108;2023-05-29T15:40:59;28.20;58.90
4520;DHT22;2272;49.226;8.108;2023-05-29T15:43:30;28.10;59.50
4520;DHT22;2272;49.226;8.108;2023-05-29T15:45:57;27.90;59.10
4520;DHT22;2272;49.226;8.108;2023-05-29T15:48:32;27.80;59.70
4520;DHT22;2272;49.226;8.108;2023-05-29T15:51:02;27.70;57.80
4520;DHT22;2272;49.226;8.108;2023-05-29T15:53:29;27.80;57.30
4520;DHT22;2272;49.226;8.108;2023-05-29T15:55:56;27.90;56.90
4520;DHT22;2272;49.226;8.108;2023-05-29T15:58:23;27.90;57.50
4520;DHT22;2272;49.226;8.108;2023-05-29T16:00:54;27.80;56.80
4520;DHT22;2272;49.226;8.108;2023-05-29T16:03:42;27.70;57.20
4520;DHT22;2272;49.226;8.108;2023-05-29T16:06:09;27.60;57.90
4520;DHT22;2272;49.226;8.108;2023-05-29T16:08:37;27.60;57.80
4520;DHT22;2272;49.226;8.108;2023-05-29T16:11:06;27.50;58.30
4520;DHT22;2272;49.226;8.108;2023-05-29T16:13:32;27.50;58.60
4520;DHT22;2272;49.226;8.108;2023-05-29T16:16:01;27.60;58.50
4520;DHT22;2272;49.226;8.108;2023-05-29T16:18:28;28.00;57.50
4520;DHT22;2272;49.226;8.108;2023-05-29T16:20:55;28.50;57.20
4520;DHT22;2272;49.226;8.108;2023-05-29T16:23:22;28.80;56.20
4520;DHT22;2272;49.226;8.108;2023-05-29T16:25:48;29.00;56.10
4520;DHT22;2272;49.226;8.108;2023-05-29T16:28:15;29.60;55.80
4520;DHT22;2272;49.226;8.108;2023-05-29T16:30:45;30.10;54.10
4520;DHT22;2272;49.226;8.108;2023-05-29T16:33:13;30.30;53.60
4520;DHT22;2272;49.226;8.108;2023-05-29T16:35:40;30.60;53.60
4520;DHT22;2272;49.226;8.108;2023-05-29T16:38:07;31.10;53.40
4520;DHT22;2272;49.226;8.108;2023-05-29T16:40:34;31.50;53.40
4520;DHT22;2272;49.226;8.108;2023-05-29T16:43:01;32.00;52.60
4520;DHT22;2272;49.226;8.108;2023-05-29T16:45:31;32.20;52.10
4520;DHT22;2272;49.226;8.108;2023-05-29T16:48:04;31.80;52.40
4520;DHT22;2272;49.226;8.108;2023-05-29T16:50:33;31.40;52.90
4520;DHT22;2272;49.226;8.108;2023-05-29T16:53:22;30.90;53.50
4520;DHT22;2272;49.226;8.108;2023-05-29T16:56:03;30.70;53.60
4520;DHT22;2272;49.226;8.108;2023-05-29T16:58:38;30.70;54.20
4520;DHT22;2272;49.226;8.108;2023-05-29T17:01:05;30.70;53.70
4520;DHT22;2272;49.226;8.108;2023-05-29T17:03:36;30.40;53.60
4520;DHT22;2272;49.226;8.108;2023-05-29T17:06:07;30.20;54.60
4520;DHT22;2272;49.226;8.108;2023-05-29T17:08:34;30.20;54.60
4520;DHT22;2272;49.226;8.108;2023-05-29T17:11:01;30.20;54.60
4520;DHT22;2272;49.226;8.108;2023-05-29T17:13:29;29.90;55.10
4520;DHT22;2272;49.226;8.108;2023-05-29T17:15:55;29.80;55.00
4520;DHT22;2272;49.226;8.108;2023-05-29T17:18:22;29.60;55.40
4520;DHT22;2272;49.226;8.108;2023-05-29T17:20:53;29.70;55.40
4520;DHT22;2272;49.226;8.108;2023-05-29T17:23:21;29.70;55.40
4520;DHT22;2272;49.226;8.108;2023-05-29T17:25:47;29.70;55.60
4520;DHT22;2272;49.226;8.108;2023-05-29T17:28:14;29.50;55.30
4520;DHT22;2272;49.226;8.108;2023-05-29T17:30:44;29.40;55.60
4520;DHT22;2272;49.226;8.108;2023-05-29T17:33:19;29.30;55.50
4520;DHT22;2272;49.226;8.108;2023-05-29T17:35:46;29.10;55.50
4520;DHT22;2272;49.226;8.108;2023-05-29T17:38:13;28.90;55.50
4520;DHT22;2272;49.226;8.108;2023-05-29T17:40:42;28.80;56.10
4520;DHT22;2272;49.226;8.108;2023-05-29T17:43:09;28.80;57.00
4520;DHT22;2272;49.226;8.108;2023-05-29T17:45:39;28.80;56.70
4520;DHT22;2272;49.226;8.108;2023-05-29T17:48:06;28.70;57.40
4520;DHT22;2272;49.226;8.108;2023-05-29T17:50:36;28.80;57.90
4520;DHT22;2272;49.226;8.108;2023-05-29T17:53:03;28.80;58.40
4520;DHT22;2272;49.226;8.108;2023-05-29T17:55:30;28.60;59.10
4520;DHT22;2272;49.226;8.108;2023-05-29T17:57:58;28.50;59.50
4520;DHT22;2272;49.226;8.108;2023-05-29T18:00:25;28.40;60.30
4520;DHT22;2272;49.226;8.108;2023-05-29T18:02:53;28.20;60.60
4520;DHT22;2272;49.226;8.108;2023-05-29T18:05:20;28.20;60.70
4520;DHT22;2272;49.226;8.108;2023-05-29T18:07:47;27.90;61.70
4520;DHT22;2272;49.226;8.108;2023-05-29T18:10:14;27.70;62.10
4520;DHT22;2272;49.226;8.108;2023-05-29T18:12:46;27.50;63.20
4520;DHT22;2272;49.226;8.108;2023-05-29T18:15:17;27.20;63.70
4520;DHT22;2272;49.226;8.108;2023-05-29T18:17:45;26.80;65.00
4520;DHT22;2272;49.226;8.108;2023-05-29T18:20:12;26.20;66.50
4520;DHT22;2272;49.226;8.108;2023-05-29T18:22:41;25.60;68.00
4520;DHT22;2272;49.226;8.108;2023-05-29T18:25:09;25.00;69.80
4520;DHT22;2272;49.226;8.108;2023-05-29T18:27:35;24.60;70.80
4520;DHT22;2272;49.226;8.108;2023-05-29T18:30:03;24.50;71.10
4520;DHT22;2272;49.226;8.108;2023-05-29T18:32:34;24.70;71.50
4520;DHT22;2272;49.226;8.108;2023-05-29T18:35:04;24.70;72.40
4520;DHT22;2272;49.226;8.108;2023-05-29T18:37:33;24.60;71.90
4520;DHT22;2272;49.226;8.108;2023-05-29T18:40:00;24.40;72.60
4520;DHT22;2272;49.226;8.108;2023-05-29T18:42:29;24.20;73.50
4520;DHT22;2272;49.226;8.108;2023-05-29T18:44:56;24.00;74.00
4520;DHT22;2272;49.226;8.108;2023-05-29T18:47:23;23.80;74.40
4520;DHT22;2272;49.226;8.108;2023-05-29T18:49:51;23.70;75.00
4520;DHT22;2272;49.226;8.108;2023-05-29T18:52:21;23.40;75.70
4520;DHT22;2272;49.226;8.108;2023-05-29T18:54:51;22.90;77.20
4520;DHT22;2272;49.226;8.108;2023-05-29T18:57:18;22.50;78.50
4520;DHT22;2272;49.226;8.108;2023-05-29T18:59:44;22.10;79.30
4520;DHT22;2272;49.226;8.108;2023-05-29T19:02:12;21.90;80.30
4520;DHT22;2272;49.226;8.108;2023-05-29T19:04:51;21.60;81.00
4520;DHT22;2272;49.226;8.108;2023-05-29T19:07:18;21.40;81.70
4520;DHT22;2272;49.226;8.108;2023-05-29T19:09:45;21.30;82.40
4520;DHT22;2272;49.226;8.108;2023-05-29T19:12:13;21.20;83.10
4520;DHT22;2272;49.226;8.108;2023-05-29T19:14:40;21.10;84.20
4520;DHT22;2272;49.226;8.108;2023-05-29T19:17:07;20.90;84.20
4520;DHT22;2272;49.226;8.108;2023-05-29T19:19:35;20.80;84.90
4520;DHT22;2272;49.226;8.108;2023-05-29T19:22:06;20.60;85.40
4520;DHT22;2272;49.226;8.108;2023-05-29T19:24:33;20.50;86.10
4520;DHT22;2272;49.226;8.108;2023-05-29T19:27:00;20.40;86.50
4520;DHT22;2272;49.226;8.108;2023-05-29T19:29:28;20.40;86.80
4520;DHT22;2272;49.226;8.108;2023-05-29T19:31:54;20.30;87.30
4520;DHT22;2272;49.226;8.108;2023-05-29T19:34:21;20.20;87.60
4520;DHT22;2272;49.226;8.108;2023-05-29T19:36:49;20.20;88.10
4520;DHT22;2272;49.226;8.108;2023-05-29T19:39:19;20.10;88.40
4520;DHT22;2272;49.226;8.108;2023-05-29T19:41:46;20.00;88.90
4520;DHT22;2272;49.226;8.108;2023-05-29T19:44:13;19.90;90.00
4520;DHT22;2272;49.226;8.108;2023-05-29T19:46:40;19.80;89.60
4520;DHT22;2272;49.226;8.108;2023-05-29T19:49:12;19.80;90.00
4520;DHT22;2272;49.226;8.108;2023-05-29T19:51:39;19.70;90.20
4520;DHT22;2272;49.226;8.108;2023-05-29T19:54:06;19.70;90.30
4520;DHT22;2272;49.226;8.108;2023-05-29T19:56:37;19.70;90.50
4520;DHT22;2272;49.226;8.108;2023-05-29T19:59:04;19.60;90.60
4520;DHT22;2272;49.226;8.108;2023-05-29T20:01:31;19.60;90.70
4520;DHT22;2272;49.226;8.108;2023-05-29T20:03:58;19.50;90.90
4520;DHT22;2272;49.226;8.108;2023-05-29T20:06:28;19.50;91.10
4520;DHT22;2272;49.226;8.108;2023-05-29T20:08:56;19.40;91.20
4520;DHT22;2272;49.226;8.108;2023-05-29T20:11:23;19.40;91.40
4520;DHT22;2272;49.226;8.108;2023-05-29T20:13:51;19.30;91.50
4520;DHT22;2272;49.226;8.108;2023-05-29T20:16:18;19.30;91.60
4520;DHT22;2272;49.226;8.108;2023-05-29T20:18:45;19.20;91.80
4520;DHT22;2272;49.226;8.108;2023-05-29T20:21:13;19.10;91.90
4520;DHT22;2272;49.226;8.108;2023-05-29T20:23:41;19.10;92.10
4520;DHT22;2272;49.226;8.108;2023-05-29T20:26:09;19.10;92.20
4520;DHT22;2272;49.226;8.108;2023-05-29T20:28:37;19.00;92.20
4520;DHT22;2272;49.226;8.108;2023-05-29T20:31:05;19.00;92.30
4520;DHT22;2272;49.226;8.108;2023-05-29T20:33:32;19.00;92.40
4520;DHT22;2272;49.226;8.108;2023-05-29T20:35:59;19.00;92.50
4520;DHT22;2272;49.226;8.108;2023-05-29T20:38:26;18.90;92.60
4520;DHT22;2272;49.226;8.108;2023-05-29T20:40:52;18.80;92.80
4520;DHT22;2272;49.226;8.108;2023-05-29T20:43:22;18.80;92.90
4520;DHT22;2272;49.226;8.108;2023-05-29T20:45:50;18.70;93.10
4520;DHT22;2272;49.226;8.108;2023-05-29T20:48:19;18.70;93.20
4520;DHT22;2272;49.226;8.108;2023-05-29T20:50:46;18.60;93.30
4520;DHT22;2272;49.226;8.108;2023-05-29T20:53:13;18.60;93.50
4520;DHT22;2272;49.226;8.108;2023-05-29T20:55:40;18.50;93.50
4520;DHT22;2272;49.226;8.108;2023-05-29T20:58:07;18.50;93.60
4520;DHT22;2272;49.226;8.108;2023-05-29T21:00:34;18.50;93.70
4520;DHT22;2272;49.226;8.108;2023-05-29T21:03:03;18.40;93.80
4520;DHT22;2272;49.226;8.108;2023-05-29T21:05:31;18.30;93.90
4520;DHT22;2272;49.226;8.108;2023-05-29T21:08:00;18.30;94.00
4520;DHT22;2272;49.226;8.108;2023-05-29T21:10:30;18.20;94.10
4520;DHT22;2272;49.226;8.108;2023-05-29T21:12:59;18.20;94.20
4520;DHT22;2272;49.226;8.108;2023-05-29T21:15:26;18.10;94.40
4520;DHT22;2272;49.226;8.108;2023-05-29T21:17:52;18.00;94.40
4520;DHT22;2272;49.226;8.108;2023-05-29T21:20:22;18.00;94.50
4520;DHT22;2272;49.226;8.108;2023-05-29T21:22:51;17.90;94.60
4520;DHT22;2272;49.226;8.108;2023-05-29T21:25:18;17.90;94.70
4520;DHT22;2272;49.226;8.108;2023-05-29T21:27:44;17.90;94.80
4520;DHT22;2272;49.226;8.108;2023-05-29T21:30:12;17.90;94.80
4520;DHT22;2272;49.226;8.108;2023-05-29T21:32:39;17.80;94.80
4520;DHT22;2272;49.226;8.108;2023-05-29T21:35:06;17.80;94.90
4520;DHT22;2272;49.226;8.108;2023-05-29T21:37:35;17.70;95.00
4520;DHT22;2272;49.226;8.108;2023-05-29T21:40:11;17.70;95.20
4520;DHT22;2272;49.226;8.108;2023-05-29T21:42:38;17.60;95.20
4520;DHT22;2272;49.226;8.108;2023-05-29T21:45:07;17.50;95.30
4520;DHT22;2272;49.226;8.108;2023-05-29T21:47:34;17.50;95.40
4520;DHT22;2272;49.226;8.108;2023-05-29T21:50:01;17.50;95.40
4520;DHT22;2272;49.226;8.108;2023-05-29T21:52:29;17.50;95.40
4520;DHT22;2272;49.226;8.108;2023-05-29T21:54:57;17.40;95.50
4520;DHT22;2272;49.226;8.108;2023-05-29T21:57:25;17.40;95.60
4520;DHT22;2272;49.226;8.108;2023-05-29T21:59:52;17.30;95.60
4520;DHT22;2272;49.226;8.108;2023-05-29T22:02:22;17.30;95.70
4520;DHT22;2272;49.226;8.108;2023-05-29T22:04:50;17.20;95.70
4520;DHT22;2272;49.226;8.108;2023-05-29T22:07:18;17.20;95.80
4520;DHT22;2272;49.226;8.108;2023-05-29T22:09:45;17.20;95.80
4520;DHT22;2272;49.226;8.108;2023-05-29T22:12:15;17.10;95.70
4520;DHT22;2272;49.226;8.108;2023-05-29T22:14:44;17.10;95.60
4520;DHT22;2272;49.226;8.108;2023-05-29T22:17:12;17.10;95.70
4520;DHT22;2272;49.226;8.108;2023-05-29T22:19:39;17.00;95.80
4520;DHT22;2272;49.226;8.108;2023-05-29T22:22:12;16.90;95.80
4520;DHT22;2272;49.226;8.108;2023-05-29T22:24:39;16.90;96.00
4520;DHT22;2272;49.226;8.108;2023-05-29T22:27:10;16.80;96.00
4520;DHT22;2272;49.226;8.108;2023-05-29T22:29:37;16.80;96.00
4520;DHT22;2272;49.226;8.108;2023-05-29T22:32:05;16.80;96.10
4520;DHT22;2272;49.226;8.108;2023-05-29T22:34:32;16.80;96.10
4520;DHT22;2272;49.226;8.108;2023-05-29T22:36:59;16.70;96.20
4520;DHT22;2272;49.226;8.108;2023-05-29T22:39:26;16.70;96.30
4520;DHT22;2272;49.226;8.108;2023-05-29T22:41:54;16.70;96.30
4520;DHT22;2272;49.226;8.108;2023-05-29T22:44:22;16.70;96.30
4520;DHT22;2272;49.226;8.108;2023-05-29T22:46:49;16.70;96.40
4520;DHT22;2272;49.226;8.108;2023-05-29T22:49:17;16.60;96.50
4520;DHT22;2272;49.226;8.108;2023-05-29T22:51:44;16.50;96.50
4520;DHT22;2272;49.226;8.108;2023-05-29T22:54:10;16.50;96.50
4520;DHT22;2272;49.226;8.108;2023-05-29T22:56:39;16.50;96.60
4520;DHT22;2272;49.226;8.108;2023-05-29T22:59:06;16.50;96.60
4520;DHT22;2272;49.226;8.108;2023-05-29T23:01:33;16.50;96.60
4520;DHT22;2272;49.226;8.108;2023-05-29T23:04:01;16.50;96.70
4520;DHT22;2272;49.226;8.108;2023-05-29T23:06:29;16.40;96.70
4520;DHT22;2272;49.226;8.108;2023-05-29T23:08:58;16.40;96.70
4520;DHT22;2272;49.226;8.108;2023-05-29T23:11:26;16.40;96.70
4520;DHT22;2272;49.226;8.108;2023-05-29T23:13:52;16.40;96.80
4520;DHT22;2272;49.226;8.108;2023-05-29T23:16:22;16.30;96.70
4520;DHT22;2272;49.226;8.108;2023-05-29T23:18:48;16.40;96.80
4520;DHT22;2272;49.226;8.108;2023-05-29T23:21:15;16.40;96.80
4520;DHT22;2272;49.226;8.108;2023-05-29T23:23:44;16.30;96.80
4520;DHT22;2272;49.226;8.108;2023-05-29T23:26:12;16.30;96.90
4520;DHT22;2272;49.226;8.108;2023-05-29T23:28:39;16.20;97.00
4520;DHT22;2272;49.226;8.108;2023-05-29T23:31:06;16.20;97.00
4520;DHT22;2272;49.226;8.108;2023-05-29T23:33:33;16.20;97.10
4520;DHT22;2272;49.226;8.108;2023-05-29T23:36:01;16.20;97.00
4520;DHT22;2272;49.226;8.108;2023-05-29T23:38:28;16.20;97.10
4520;DHT22;2272;49.226;8.108;2023-05-29T23:40:57;16.20;97.00
4520;DHT22;2272;49.226;8.108;2023-05-29T23:43:24;16.20;97.00
4520;DHT22;2272;49.226;8.108;2023-05-29T23:45:51;16.20;97.00
4520;DHT22;2272;49.226;8.108;2023-05-29T23:48:17;16.10;97.00
4520;DHT22;2272;49.226;8.108;2023-05-29T23:50:44;16.10;97.10
4520;DHT22;2272;49.226;8.108;2023-05-29T23:53:11;16.10;97.10
4520;DHT22;2272;49.226;8.108;2023-05-29T23:55:38;16.00;97.10
4520;DHT22;2272;49.226;8.108;2023-05-29T23:58:06;16.00;97.20
